sensor_id;sensor_type;location;lat;lon;timestamp;pressure;altitude;pressure_sealevel;temperature;humidity
35704;BME280;21820;51.112;13.762;2022-08-19T00:00:35;98613.31;;;26.58;57.68
35704;BME280;21820;51.112;13.762;2022-08-19T00:03:01;98617.78;;;26.57;58.09
35704;BME280;21820;51.112;13.762;2022-08-19T00:05:27;98631.56;;;26.59;57.94
35704;BME280;21820;51.112;13.762;2022-08-19T00:07:52;98639.66;;;26.58;58.10
35704;BME280;21820;51.112;13.762;2022-08-19T00:10:19;98615.31;;;26.49;58.31
35704;BME280;21820;51.112;13.762;2022-08-19T00:12:45;98632.38;;;26.60;58.66
35704;BME280;21820;51.112;13.762;2022-08-19T00:15:13;98625.91;;;26.28;54.74
35704;BME280;21820;51.112;13.762;2022-08-19T00:17:40;98616.25;;;26.08;53.44
35704;BME280;21820;51.112;13.762;2022-08-19T00:20:07;98622.88;;;26.31;56.28
35704;BME280;21820;51.112;13.762;2022-08-19T00:22:34;98628.25;;;26.44;57.58
35704;BME280;21820;51.112;13.762;2022-08-19T00:24:59;98632.75;;;26.50;58.23
35704;BME280;21820;51.112;13.762;2022-08-19T00:27:25;98645.34;;;26.55;57.54
35704;BME280;21820;51.112;13.762;2022-08-19T00:29:50;98638.41;;;26.47;57.06
35704;BME280;21820;51.112;13.762;2022-08-19T00:32:16;98654.69;;;26.57;57.01
35704;BME280;21820;51.112;13.762;2022-08-19T00:34:41;98657.94;;;26.59;58.45
35704;BME280;21820;51.112;13.762;2022-08-19T00:37:07;98651.03;;;26.58;58.09
35704;BME280;21820;51.112;13.762;2022-08-19T00:39:32;98650.19;;;26.51;58.58
35704;BME280;21820;51.112;13.762;2022-08-19T00:41:58;98658.94;;;26.58;58.11
35704;BME280;21820;51.112;13.762;2022-08-19T00:44:26;98665.03;;;26.59;59.23
35704;BME280;21820;51.112;13.762;2022-08-19T00:46:54;98668.66;;;26.58;57.25
35704;BME280;21820;51.112;13.762;2022-08-19T00:49:29;98677.41;;;26.58;57.99
35704;BME280;21820;51.112;13.762;2022-08-19T00:52:02;98660.75;;;26.58;59.29
35704;BME280;21820;51.112;13.762;2022-08-19T00:54:29;98654.69;;;26.57;58.91
35704;BME280;21820;51.112;13.762;2022-08-19T00:56:57;98648.41;;;26.58;58.29
35704;BME280;21820;51.112;13.762;2022-08-19T00:59:23;98655.50;;;26.58;58.55
35704;BME280;21820;51.112;13.762;2022-08-19T01:01:50;98646.78;;;26.30;54.16
35704;BME280;21820;51.112;13.762;2022-08-19T01:04:15;98631.63;;;26.04;53.49
35704;BME280;21820;51.112;13.762;2022-08-19T01:06:41;98658.16;;;26.30;56.31
35704;BME280;21820;51.112;13.762;2022-08-19T01:09:08;98638.56;;;26.39;57.60
35704;BME280;21820;51.112;13.762;2022-08-19T01:11:36;98643.28;;;26.50;57.99
35704;BME280;21820;51.112;13.762;2022-08-19T01:14:04;98640.25;;;26.53;57.97
35704;BME280;21820;51.112;13.762;2022-08-19T01:16:30;98648.63;;;26.63;59.94
35704;BME280;21820;51.112;13.762;2022-08-19T01:18:57;98645.38;;;26.61;56.72
35704;BME280;21820;51.112;13.762;2022-08-19T01:21:40;98645.38;;;26.61;58.44
35704;BME280;21820;51.112;13.762;2022-08-19T01:24:07;98648.19;;;26.60;57.06
35704;BME280;21820;51.112;13.762;2022-08-19T01:26:39;98646.97;;;26.56;59.14
35704;BME280;21820;51.112;13.762;2022-08-19T01:29:07;98659.56;;;26.60;57.96
35704;BME280;21820;51.112;13.762;2022-08-19T01:31:33;98674.19;;;26.63;58.28
35704;BME280;21820;51.112;13.762;2022-08-19T01:33:59;98658.50;;;26.55;58.14
35704;BME280;21820;51.112;13.762;2022-08-19T01:39:00;98675.41;;;26.60;58.05
35704;BME280;21820;51.112;13.762;2022-08-19T01:41:25;98667.28;;;26.62;57.74
35704;BME280;21820;51.112;13.762;2022-08-19T01:43:51;98672.38;;;26.63;58.28
35704;BME280;21820;51.112;13.762;2022-08-19T01:46:18;98664.53;;;26.70;59.85
35704;BME280;21820;51.112;13.762;2022-08-19T01:48:43;98660.41;;;26.33;54.29
35704;BME280;21820;51.112;13.762;2022-08-19T01:51:10;98654.41;;;26.18;53.17
35704;BME280;21820;51.112;13.762;2022-08-19T01:53:37;98647.63;;;26.30;55.42
35704;BME280;21820;51.112;13.762;2022-08-19T01:56:04;98660.69;;;26.45;57.58
35704;BME280;21820;51.112;13.762;2022-08-19T01:58:39;98665.25;;;26.57;58.80
35704;BME280;21820;51.112;13.762;2022-08-19T02:01:07;98674.97;;;26.57;57.44
35704;BME280;21820;51.112;13.762;2022-08-19T02:03:33;98680.25;;;26.57;57.42
35704;BME280;21820;51.112;13.762;2022-08-19T02:06:00;98671.50;;;26.56;57.74
35704;BME280;21820;51.112;13.762;2022-08-19T02:08:28;98668.88;;;26.56;57.56
35704;BME280;21820;51.112;13.762;2022-08-19T02:10:54;98671.19;;;26.66;59.76
35704;BME280;21820;51.112;13.762;2022-08-19T02:13:19;98651.66;;;26.60;57.52
35704;BME280;21820;51.112;13.762;2022-08-19T02:15:45;98643.94;;;26.59;57.50
35704;BME280;21820;51.112;13.762;2022-08-19T02:18:11;98608.00;;;26.51;57.35
35704;BME280;21820;51.112;13.762;2022-08-19T02:20:38;98611.25;;;26.53;58.08
35704;BME280;21820;51.112;13.762;2022-08-19T02:23:05;98629.13;;;26.58;58.19
35704;BME280;21820;51.112;13.762;2022-08-19T02:25:30;98641.50;;;26.57;58.70
35704;BME280;21820;51.112;13.762;2022-08-19T02:27:56;98650.03;;;26.59;58.23
35704;BME280;21820;51.112;13.762;2022-08-19T02:30:21;98657.94;;;26.59;57.85
35704;BME280;21820;51.112;13.762;2022-08-19T02:32:47;98665.84;;;26.59;57.72
35704;BME280;21820;51.112;13.762;2022-08-19T02:35:13;98668.31;;;26.33;54.62
35704;BME280;21820;51.112;13.762;2022-08-19T02:37:39;98671.00;;;26.12;53.52
35704;BME280;21820;51.112;13.762;2022-08-19T02:40:23;98669.34;;;26.32;56.75
35704;BME280;21820;51.112;13.762;2022-08-19T02:42:49;98659.88;;;26.44;57.16
35704;BME280;21820;51.112;13.762;2022-08-19T02:45:14;98651.00;;;26.52;57.14
35704;BME280;21820;51.112;13.762;2022-08-19T02:47:40;98649.78;;;26.54;57.65
35704;BME280;21820;51.112;13.762;2022-08-19T02:50:06;98634.75;;;26.48;57.21
35704;BME280;21820;51.112;13.762;2022-08-19T02:52:33;98652.06;;;26.57;57.80
35704;BME280;21820;51.112;13.762;2022-08-19T02:54:59;98658.13;;;26.58;56.96
35704;BME280;21820;51.112;13.762;2022-08-19T02:57:25;98651.03;;;26.58;58.39
35704;BME280;21820;51.112;13.762;2022-08-19T02:59:51;98661.59;;;26.58;58.07
35704;BME280;21820;51.112;13.762;2022-08-19T03:02:16;98668.47;;;26.59;57.01
35704;BME280;21820;51.112;13.762;2022-08-19T03:04:42;98682.28;;;26.61;58.13
35704;BME280;21820;51.112;13.762;2022-08-19T03:07:08;98675.41;;;26.60;58.04
35704;BME280;21820;51.112;13.762;2022-08-19T03:09:36;98679.03;;;26.59;58.83
35704;BME280;21820;51.112;13.762;2022-08-19T03:12:04;98675.41;;;26.60;58.68
35704;BME280;21820;51.112;13.762;2022-08-19T03:14:34;98675.41;;;26.60;58.44
35704;BME280;21820;51.112;13.762;2022-08-19T03:16:59;98665.84;;;26.59;58.57
35704;BME280;21820;51.112;13.762;2022-08-19T03:19:25;98654.31;;;26.60;58.96
35704;BME280;21820;51.112;13.762;2022-08-19T03:21:51;98648.25;;;26.32;55.38
35704;BME280;21820;51.112;13.762;2022-08-19T03:24:18;98652.38;;;26.14;53.36
35704;BME280;21820;51.112;13.762;2022-08-19T03:26:45;98640.72;;;26.29;58.60
35704;BME280;21820;51.112;13.762;2022-08-19T03:29:11;98657.06;;;26.46;57.91
35704;BME280;21820;51.112;13.762;2022-08-19T03:31:38;98662.56;;;26.51;57.92
35704;BME280;21820;51.112;13.762;2022-08-19T03:34:04;98677.78;;;26.55;57.80
35704;BME280;21820;51.112;13.762;2022-08-19T03:36:29;98678.44;;;26.57;57.63
35704;BME280;21820;51.112;13.762;2022-08-19T03:38:59;98661.56;;;26.52;58.25
35704;BME280;21820;51.112;13.762;2022-08-19T03:41:35;98666.84;;;26.58;58.53
35704;BME280;21820;51.112;13.762;2022-08-19T03:44:02;98670.13;;;26.60;57.85
35704;BME280;21820;51.112;13.762;2022-08-19T03:46:30;98676.38;;;26.59;58.40
35704;BME280;21820;51.112;13.762;2022-08-19T03:48:57;98666.38;;;26.48;57.57
35704;BME280;21820;51.112;13.762;2022-08-19T03:51:30;98679.84;;;26.60;59.28
35704;BME280;21820;51.112;13.762;2022-08-19T03:53:57;98676.38;;;26.59;57.55
35704;BME280;21820;51.112;13.762;2022-08-19T03:56:23;98679.84;;;26.60;58.15
35704;BME280;21820;51.112;13.762;2022-08-19T03:58:51;98662.75;;;26.49;58.06
35704;BME280;21820;51.112;13.762;2022-08-19T04:01:19;98681.66;;;26.59;58.73
35704;BME280;21820;51.112;13.762;2022-08-19T04:03:45;98684.13;;;26.61;57.97
35704;BME280;21820;51.112;13.762;2022-08-19T04:06:17;98683.09;;;26.62;59.42
35704;BME280;21820;51.112;13.762;2022-08-19T04:08:45;98678.06;;;26.33;54.78
35704;BME280;21820;51.112;13.762;2022-08-19T04:11:12;98688.06;;;26.16;53.86
35704;BME280;21820;51.112;13.762;2022-08-19T04:13:38;98687.78;;;26.32;56.37
35704;BME280;21820;51.112;13.762;2022-08-19T04:16:05;98688.69;;;26.46;57.15
35704;BME280;21820;51.112;13.762;2022-08-19T04:18:31;98683.47;;;26.52;57.19
35704;BME280;21820;51.112;13.762;2022-08-19T04:20:58;98668.41;;;26.46;57.55
35704;BME280;21820;51.112;13.762;2022-08-19T04:23:24;98671.13;;;26.59;57.99
35704;BME280;21820;51.112;13.762;2022-08-19T04:25:50;98673.75;;;26.59;57.84
35704;BME280;21820;51.112;13.762;2022-08-19T04:28:15;98664.84;;;26.60;58.13
35704;BME280;21820;51.112;13.762;2022-08-19T04:30:44;98658.91;;;26.52;58.03
35704;BME280;21820;51.112;13.762;2022-08-19T04:33:12;98678.66;;;26.62;57.97
35704;BME280;21820;51.112;13.762;2022-08-19T04:35:40;98677.00;;;26.61;57.32
35704;BME280;21820;51.112;13.762;2022-08-19T04:38:07;98685.94;;;26.60;57.86
35704;BME280;21820;51.112;13.762;2022-08-19T04:40:33;98684.72;;;26.63;57.17
35704;BME280;21820;51.112;13.762;2022-08-19T04:43:18;98678.66;;;26.62;58.51
35704;BME280;21820;51.112;13.762;2022-08-19T04:45:44;98681.28;;;26.62;58.19
35704;BME280;21820;51.112;13.762;2022-08-19T04:48:11;98667.25;;;26.55;58.28
35704;BME280;21820;51.112;13.762;2022-08-19T04:50:39;98684.72;;;26.63;59.52
35704;BME280;21820;51.112;13.762;2022-08-19T04:53:06;98684.72;;;26.63;57.71
35704;BME280;21820;51.112;13.762;2022-08-19T04:55:31;98690.25;;;26.40;55.27
35704;BME280;21820;51.112;13.762;2022-08-19T04:57:57;98692.53;;;26.16;52.98
35704;BME280;21820;51.112;13.762;2022-08-19T05:00:22;98691.78;;;26.28;55.19
35704;BME280;21820;51.112;13.762;2022-08-19T05:02:48;98695.16;;;26.43;57.39
35704;BME280;21820;51.112;13.762;2022-08-19T05:05:14;98686.09;;;26.52;57.58
35704;BME280;21820;51.112;13.762;2022-08-19T05:07:40;98676.78;;;26.56;57.54
35704;BME280;21820;51.112;13.762;2022-08-19T05:10:06;98677.41;;;26.58;58.01
35704;BME280;21820;51.112;13.762;2022-08-19T05:12:32;98678.22;;;26.59;57.66
35704;BME280;21820;51.112;13.762;2022-08-19T05:14:58;98689.56;;;26.59;57.20
35704;BME280;21820;51.112;13.762;2022-08-19T05:17:25;98696.50;;;26.60;57.58
35704;BME280;21820;51.112;13.762;2022-08-19T05:19:51;98698.09;;;26.61;57.48
35704;BME280;21820;51.112;13.762;2022-08-19T05:22:35;98707.84;;;26.61;57.73
35704;BME280;21820;51.112;13.762;2022-08-19T05:25:11;98721.22;;;26.59;59.34
35704;BME280;21820;51.112;13.762;2022-08-19T05:27:37;98724.66;;;26.60;58.33
35704;BME280;21820;51.112;13.762;2022-08-19T05:30:03;98734.22;;;26.61;57.70
35704;BME280;21820;51.112;13.762;2022-08-19T05:32:28;98711.63;;;26.52;58.12
35704;BME280;21820;51.112;13.762;2022-08-19T05:34:54;98730.56;;;26.62;57.24
35704;BME280;21820;51.112;13.762;2022-08-19T05:37:19;98735.84;;;26.62;58.54
35704;BME280;21820;51.112;13.762;2022-08-19T05:39:45;98733.22;;;26.62;58.44
35704;BME280;21820;51.112;13.762;2022-08-19T05:42:12;98742.13;;;26.61;58.20
35704;BME280;21820;51.112;13.762;2022-08-19T05:44:40;98752.94;;;26.17;53.82
35704;BME280;21820;51.112;13.762;2022-08-19T05:47:10;98756.19;;;26.19;54.31
35704;BME280;21820;51.112;13.762;2022-08-19T05:49:36;98770.97;;;26.41;57.03
35704;BME280;21820;51.112;13.762;2022-08-19T05:52:06;98764.56;;;26.50;58.70
35704;BME280;21820;51.112;13.762;2022-08-19T05:54:32;98776.34;;;26.54;57.64
35704;BME280;21820;51.112;13.762;2022-08-19T05:56:58;98768.22;;;26.49;58.19
35704;BME280;21820;51.112;13.762;2022-08-19T05:59:25;98782.88;;;26.58;58.30
35704;BME280;21820;51.112;13.762;2022-08-19T06:01:52;98781.84;;;26.59;57.50
35704;BME280;21820;51.112;13.762;2022-08-19T06:04:20;98780.22;;;26.58;57.84
35704;BME280;21820;51.112;13.762;2022-08-19T06:06:50;98786.13;;;26.60;58.55
35704;BME280;21820;51.112;13.762;2022-08-19T06:09:18;98789.75;;;26.59;57.63
35704;BME280;21820;51.112;13.762;2022-08-19T06:11:53;98784.44;;;26.53;59.45
35704;BME280;21820;51.112;13.762;2022-08-19T06:14:21;98813.34;;;26.61;58.72
35704;BME280;21820;51.112;13.762;2022-08-19T06:16:47;98816.75;;;26.61;57.82
35704;BME280;21820;51.112;13.762;2022-08-19T06:19:16;98821.97;;;26.55;59.01
35704;BME280;21820;51.112;13.762;2022-08-19T06:21:44;98837.22;;;26.59;58.57
35704;BME280;21820;51.112;13.762;2022-08-19T06:24:13;98845.97;;;26.60;57.98
35704;BME280;21820;51.112;13.762;2022-08-19T06:26:41;98846.97;;;26.59;58.46
35704;BME280;21820;51.112;13.762;2022-08-19T06:29:09;98840.63;;;26.53;57.91
35704;BME280;21820;51.112;13.762;2022-08-19T06:31:35;98850.41;;;26.17;53.66
35704;BME280;21820;51.112;13.762;2022-08-19T06:34:03;98850.47;;;26.24;55.31
35704;BME280;21820;51.112;13.762;2022-08-19T06:36:34;98856.97;;;26.42;58.33
35704;BME280;21820;51.112;13.762;2022-08-19T06:39:07;98854.19;;;26.50;58.85
35704;BME280;21820;51.112;13.762;2022-08-19T06:41:38;98870.44;;;26.54;58.59
35704;BME280;21820;51.112;13.762;2022-08-19T06:44:05;98857.91;;;26.56;57.98
35704;BME280;21820;51.112;13.762;2022-08-19T06:46:30;98848.53;;;26.53;58.03
35704;BME280;21820;51.112;13.762;2022-08-19T06:48:56;98858.50;;;26.58;58.11
35704;BME280;21820;51.112;13.762;2022-08-19T06:51:22;98862.59;;;26.60;57.71
35704;BME280;21820;51.112;13.762;2022-08-19T06:53:50;98871.34;;;26.61;58.11
35704;BME280;21820;51.112;13.762;2022-08-19T06:56:18;98868.88;;;26.59;58.13
35704;BME280;21820;51.112;13.762;2022-08-19T06:58:44;98877.59;;;26.60;57.44
35704;BME280;21820;51.112;13.762;2022-08-19T07:01:09;98886.13;;;26.62;57.59
35704;BME280;21820;51.112;13.762;2022-08-19T07:03:37;98883.44;;;26.55;58.56
35704;BME280;21820;51.112;13.762;2022-08-19T07:06:09;98883.69;;;26.60;59.11
35704;BME280;21820;51.112;13.762;2022-08-19T07:08:36;98888.97;;;26.60;58.53
35704;BME280;21820;51.112;13.762;2022-08-19T07:11:05;98894.25;;;26.60;59.56
35704;BME280;21820;51.112;13.762;2022-08-19T07:13:32;98884.69;;;26.59;57.75
35704;BME280;21820;51.112;13.762;2022-08-19T07:16:11;98890.91;;;26.31;54.47
35704;BME280;21820;51.112;13.762;2022-08-19T07:18:37;98867.59;;;26.13;53.35
35704;BME280;21820;51.112;13.762;2022-08-19T07:21:26;98876.53;;;26.33;57.31
35704;BME280;21820;51.112;13.762;2022-08-19T07:23:54;98866.94;;;26.47;57.31
35704;BME280;21820;51.112;13.762;2022-08-19T07:26:22;98865.38;;;26.52;58.37
35704;BME280;21820;51.112;13.762;2022-08-19T07:28:49;98867.63;;;26.55;57.68
35704;BME280;21820;51.112;13.762;2022-08-19T07:31:17;98886.34;;;26.60;58.04
35704;BME280;21820;51.112;13.762;2022-08-19T07:33:44;98885.94;;;26.63;58.18
35704;BME280;21820;51.112;13.762;2022-08-19T07:36:13;98886.34;;;26.60;58.24
35704;BME280;21820;51.112;13.762;2022-08-19T07:38:41;98896.50;;;26.63;58.32
35704;BME280;21820;51.112;13.762;2022-08-19T07:41:09;98889.69;;;26.54;58.18
35704;BME280;21820;51.112;13.762;2022-08-19T07:43:35;98903.38;;;26.64;58.36
35704;BME280;21820;51.112;13.762;2022-08-19T07:46:00;98908.66;;;26.64;57.63
35704;BME280;21820;51.112;13.762;2022-08-19T07:48:27;98901.59;;;26.65;58.43
35704;BME280;21820;51.112;13.762;2022-08-19T07:50:55;98910.50;;;26.64;58.30
35704;BME280;21820;51.112;13.762;2022-08-19T07:53:22;98897.31;;;26.64;57.83
35704;BME280;21820;51.112;13.762;2022-08-19T07:55:48;98898.13;;;26.64;58.50
35704;BME280;21820;51.112;13.762;2022-08-19T07:58:18;98889.25;;;26.65;59.21
35704;BME280;21820;51.112;13.762;2022-08-19T08:00:46;98899.81;;;26.65;58.79
35704;BME280;21820;51.112;13.762;2022-08-19T08:03:13;98896.63;;;26.34;54.51
35704;BME280;21820;51.112;13.762;2022-08-19T08:05:39;98890.13;;;26.16;53.36
35704;BME280;21820;51.112;13.762;2022-08-19T08:08:23;98886.44;;;26.31;56.26
35704;BME280;21820;51.112;13.762;2022-08-19T08:11:07;98913.38;;;26.48;58.01
35704;BME280;21820;51.112;13.762;2022-08-19T08:13:33;98914.25;;;26.55;57.60
35704;BME280;21820;51.112;13.762;2022-08-19T08:16:01;98915.09;;;26.55;57.56
35704;BME280;21820;51.112;13.762;2022-08-19T08:18:26;98916.69;;;26.56;57.39
35704;BME280;21820;51.112;13.762;2022-08-19T08:20:52;98916.31;;;26.59;57.30
35704;BME280;21820;51.112;13.762;2022-08-19T08:23:17;98912.69;;;26.60;57.84
35704;BME280;21820;51.112;13.762;2022-08-19T08:25:51;98921.59;;;26.59;56.91
35704;BME280;21820;51.112;13.762;2022-08-19T08:28:17;98924.22;;;26.59;56.81
35704;BME280;21820;51.112;13.762;2022-08-19T08:30:44;98922.41;;;26.60;57.76
35704;BME280;21820;51.112;13.762;2022-08-19T08:33:11;98925.25;;;26.58;57.88
35704;BME280;21820;51.112;13.762;2022-08-19T08:35:36;98928.72;;;26.59;57.80
35704;BME280;21820;51.112;13.762;2022-08-19T08:38:02;98923.25;;;26.60;58.31
35704;BME280;21820;51.112;13.762;2022-08-19T08:43:17;98932.16;;;26.59;59.13
35704;BME280;21820;51.112;13.762;2022-08-19T08:46:06;98936.44;;;26.60;60.30
35704;BME280;21820;51.112;13.762;2022-08-19T08:51:20;98947.09;;;26.17;53.16
35704;BME280;21820;51.112;13.762;2022-08-19T08:53:50;98942.28;;;26.20;54.61
35704;BME280;21820;51.112;13.762;2022-08-19T08:56:17;98947.75;;;26.40;57.65
35704;BME280;21820;51.112;13.762;2022-08-19T09:01:10;98943.44;;;26.53;58.12
35704;BME280;21820;51.112;13.762;2022-08-19T09:03:39;98943.06;;;26.56;58.02
35704;BME280;21820;51.112;13.762;2022-08-19T09:06:32;98945.53;;;26.58;59.29
35704;BME280;21820;51.112;13.762;2022-08-19T09:09:14;98944.34;;;26.60;59.61
35704;BME280;21820;51.112;13.762;2022-08-19T09:14:31;98937.16;;;26.54;58.86
35704;BME280;21820;51.112;13.762;2022-08-19T09:17:00;98947.44;;;26.64;58.17
35704;BME280;21820;51.112;13.762;2022-08-19T09:19:29;98950.25;;;26.62;58.74
35704;BME280;21820;51.112;13.762;2022-08-19T09:21:55;98949.34;;;26.70;59.80
35704;BME280;21820;51.112;13.762;2022-08-19T09:24:20;98953.34;;;26.66;58.59
35704;BME280;21820;51.112;13.762;2022-08-19T09:26:46;98940.31;;;26.64;58.55
35704;BME280;21820;51.112;13.762;2022-08-19T09:29:12;98934.09;;;26.65;58.34
35704;BME280;21820;51.112;13.762;2022-08-19T09:31:38;98929.94;;;26.63;57.66
35704;BME280;21820;51.112;13.762;2022-08-19T09:34:03;98918.34;;;26.57;58.24
35704;BME280;21820;51.112;13.762;2022-08-19T09:36:33;98924.22;;;26.38;54.67
35704;BME280;21820;51.112;13.762;2022-08-19T09:39:04;98923.19;;;26.18;53.27
35704;BME280;21820;51.112;13.762;2022-08-19T09:41:30;98916.06;;;26.33;55.32
35704;BME280;21820;51.112;13.762;2022-08-19T09:43:57;98913.75;;;26.45;57.94
35704;BME280;21820;51.112;13.762;2022-08-19T09:46:27;98923.56;;;26.51;57.94
35704;BME280;21820;51.112;13.762;2022-08-19T09:48:53;98910.78;;;26.54;57.88
35704;BME280;21820;51.112;13.762;2022-08-19T09:51:23;98913.09;;;26.57;58.02
35704;BME280;21820;51.112;13.762;2022-08-19T09:53:50;98902.53;;;26.57;57.77
35704;BME280;21820;51.112;13.762;2022-08-19T09:56:17;98912.06;;;26.58;58.09
35704;BME280;21820;51.112;13.762;2022-08-19T09:58:44;98915.72;;;26.57;57.40
35704;BME280;21820;51.112;13.762;2022-08-19T10:01:16;98914.69;;;26.58;59.32
35704;BME280;21820;51.112;13.762;2022-08-19T10:03:41;98921.59;;;26.59;57.24
35704;BME280;21820;51.112;13.762;2022-08-19T10:06:07;98926.88;;;26.59;58.13
35704;BME280;21820;51.112;13.762;2022-08-19T10:08:36;98937.41;;;26.59;57.87
35704;BME280;21820;51.112;13.762;2022-08-19T10:11:03;98940.88;;;26.60;58.22
35704;BME280;21820;51.112;13.762;2022-08-19T10:13:30;98930.34;;;26.60;58.71
35704;BME280;21820;51.112;13.762;2022-08-19T10:15:56;98923.34;;;26.67;59.58
35704;BME280;21820;51.112;13.762;2022-08-19T10:18:23;98922.22;;;26.61;58.61
35704;BME280;21820;51.112;13.762;2022-08-19T10:20:50;98919.78;;;26.60;58.44
35704;BME280;21820;51.112;13.762;2022-08-19T10:23:16;98925.81;;;26.54;55.88
35704;BME280;21820;51.112;13.762;2022-08-19T10:25:43;98919.88;;;26.10;53.24
35704;BME280;21820;51.112;13.762;2022-08-19T10:28:09;98937.06;;;26.27;54.60
35704;BME280;21820;51.112;13.762;2022-08-19T10:30:37;98929.88;;;26.35;57.75
35704;BME280;21820;51.112;13.762;2022-08-19T10:33:03;98943.19;;;26.48;57.55
35704;BME280;21820;51.112;13.762;2022-08-19T10:35:29;98945.06;;;26.54;57.95
35704;BME280;21820;51.112;13.762;2022-08-19T10:37:55;98950.19;;;26.56;58.04
35704;BME280;21820;51.112;13.762;2022-08-19T10:40:25;98942.22;;;26.49;58.11
35704;BME280;21820;51.112;13.762;2022-08-19T10:42:52;98948.97;;;26.58;57.33
35704;BME280;21820;51.112;13.762;2022-08-19T10:45:17;98948.16;;;26.58;57.30
35704;BME280;21820;51.112;13.762;2022-08-19T10:47:43;98949.63;;;26.60;57.57
35704;BME280;21820;51.112;13.762;2022-08-19T10:50:08;98945.97;;;26.61;57.72
35704;BME280;21820;51.112;13.762;2022-08-19T10:52:52;98947.97;;;26.59;58.34
35704;BME280;21820;51.112;13.762;2022-08-19T10:55:21;98952.25;;;26.60;58.22
35704;BME280;21820;51.112;13.762;2022-08-19T10:58:14;98956.50;;;26.61;59.77
35704;BME280;21820;51.112;13.762;2022-08-19T11:00:41;98947.91;;;26.53;57.64
35704;BME280;21820;51.112;13.762;2022-08-19T11:03:08;98959.53;;;26.58;57.68
35704;BME280;21820;51.112;13.762;2022-08-19T11:05:33;98964.63;;;26.60;58.64
35704;BME280;21820;51.112;13.762;2022-08-19T11:07:58;98962.16;;;26.58;57.98
35704;BME280;21820;51.112;13.762;2022-08-19T11:10:24;98969.69;;;26.40;54.96
35704;BME280;21820;51.112;13.762;2022-08-19T11:12:49;98979.91;;;26.14;53.34
35704;BME280;21820;51.112;13.762;2022-08-19T11:15:19;98983.53;;;26.28;56.32
35704;BME280;21820;51.112;13.762;2022-08-19T11:17:44;98987.13;;;26.41;57.64
35704;BME280;21820;51.112;13.762;2022-08-19T11:20:14;98992.13;;;26.51;58.69
35704;BME280;21820;51.112;13.762;2022-08-19T11:22:40;98981.19;;;26.54;57.58
35704;BME280;21820;51.112;13.762;2022-08-19T11:25:10;98986.09;;;26.57;58.21
35704;BME280;21820;51.112;13.762;2022-08-19T11:27:40;98989.53;;;26.57;58.99
35704;BME280;21820;51.112;13.762;2022-08-19T11:30:12;98990.97;;;26.60;58.50
35704;BME280;21820;51.112;13.762;2022-08-19T11:32:38;98991.81;;;26.60;56.88
35704;BME280;21820;51.112;13.762;2022-08-19T11:35:03;98989.81;;;26.62;58.43
35704;BME280;21820;51.112;13.762;2022-08-19T11:37:29;98996.91;;;26.62;58.14
35704;BME280;21820;51.112;13.762;2022-08-19T11:39:54;98989.81;;;26.62;58.42
35704;BME280;21820;51.112;13.762;2022-08-19T11:42:19;98999.53;;;26.62;58.13
35704;BME280;21820;51.112;13.762;2022-08-19T11:45:03;99004.81;;;26.62;58.55
35704;BME280;21820;51.112;13.762;2022-08-19T11:47:29;99003.00;;;26.62;58.56
35704;BME280;21820;51.112;13.762;2022-08-19T11:49:55;98999.53;;;26.62;57.26
35704;BME280;21820;51.112;13.762;2022-08-19T11:52:21;98988.78;;;26.63;58.34
35704;BME280;21820;51.112;13.762;2022-08-19T11:54:47;98979.88;;;26.64;58.37
35704;BME280;21820;51.112;13.762;2022-08-19T11:57:12;98977.53;;;26.19;53.72
35704;BME280;21820;51.112;13.762;2022-08-19T11:59:39;98991.34;;;26.21;53.51
35704;BME280;21820;51.112;13.762;2022-08-19T12:02:05;98996.03;;;26.40;57.23
35704;BME280;21820;51.112;13.762;2022-08-19T12:04:30;98991.59;;;26.41;57.28
35704;BME280;21820;51.112;13.762;2022-08-19T12:06:56;99002.47;;;26.52;57.89
35704;BME280;21820;51.112;13.762;2022-08-19T12:09:21;99004.72;;;26.55;57.21
35704;BME280;21820;51.112;13.762;2022-08-19T12:11:47;99006.34;;;26.56;57.90
35704;BME280;21820;51.112;13.762;2022-08-19T12:14:13;99005.38;;;26.57;57.83
35704;BME280;21820;51.112;13.762;2022-08-19T12:16:39;99002.72;;;26.57;58.33
35704;BME280;21820;51.112;13.762;2022-08-19T12:19:06;99010.63;;;26.57;58.15
35704;BME280;21820;51.112;13.762;2022-08-19T12:21:34;99010.38;;;26.52;58.13
35704;BME280;21820;51.112;13.762;2022-08-19T12:24:00;99025.44;;;26.58;58.29
35704;BME280;21820;51.112;13.762;2022-08-19T12:26:28;99023.00;;;26.57;58.04
35704;BME280;21820;51.112;13.762;2022-08-19T12:28:54;99026.47;;;26.57;57.50
35704;BME280;21820;51.112;13.762;2022-08-19T12:31:20;99022.81;;;26.58;58.29
35704;BME280;21820;51.112;13.762;2022-08-19T12:33:46;99015.72;;;26.59;58.15
35704;BME280;21820;51.112;13.762;2022-08-19T12:36:14;99012.06;;;26.60;58.83
35704;BME280;21820;51.112;13.762;2022-08-19T12:38:40;99013.28;;;26.57;57.48
35704;BME280;21820;51.112;13.762;2022-08-19T12:41:09;99013.28;;;26.57;59.42
35704;BME280;21820;51.112;13.762;2022-08-19T12:43:36;99014.44;;;26.19;53.77
35704;BME280;21820;51.112;13.762;2022-08-19T12:46:05;99012.78;;;26.18;54.29
35704;BME280;21820;51.112;13.762;2022-08-19T12:48:31;99014.69;;;26.39;56.99
35704;BME280;21820;51.112;13.762;2022-08-19T12:50:57;99024.09;;;26.48;57.62
35704;BME280;21820;51.112;13.762;2022-08-19T12:53:22;99025.19;;;26.53;57.93
35704;BME280;21820;51.112;13.762;2022-08-19T12:55:53;99029.09;;;26.57;57.80
35704;BME280;21820;51.112;13.762;2022-08-19T12:58:21;99029.09;;;26.57;57.55
35704;BME280;21820;51.112;13.762;2022-08-19T13:00:46;99019.97;;;26.60;57.83
35704;BME280;21820;51.112;13.762;2022-08-19T13:03:11;99019.78;;;26.61;58.05
35704;BME280;21820;51.112;13.762;2022-08-19T13:05:37;99009.25;;;26.61;58.28